Toledo, Iowa
Current Conditions -  °F | °C
As of 2:53 AM on Friday 31 Oct 2014 (Local Time) from KMIW Reporting Station
Scattered Clouds Scattered Clouds  
Wind Chill: 23°   Ceiling: Unl
Heat Index: 35°   Visibility: 10mi
Dew Point: 22°   Wind: 23mph
Humidity: 59%   Direction: 350°N
Pressure: 30.3"   Gusts: 31mph
Location:  42°N, 92.58°W
Report Text: KMIW 310753Z AUTO 35020G27KT 10SM SCT042 02/M06 A3030 RMK AO2 PK WND 35032/0735 SLP266 T00171056
Loading
Personal Weather Stations






























Interactive Weather Map
Tropical Storm Tracking
New forecast layout! Learn more

10-Day Weather Forecast

Advertisements
Track Severe Weather on mobile